| time (UTC) | temp F | wind direction | speed MPH | gust MPH | rain 1hr in | rain 24hr in | rain mn in | humidity % | barometer mb |
| 20260507205122 | 65 | 161 | 0.0 | 0.0 | 0.00 | 0.36 | 0.03 | 62 | 1005.3 |
| 20260507202052 | 66 | 196 | 0.0 | 0.0 | 0.00 | 0.36 | 0.03 | 60 | 1005.5 |
| 20260507195122 | 66 | 157 | 0.0 | 8.0 | 0.00 | 0.36 | 0.03 | 62 | 1005.9 |
| 20260507185122 | 63 | 130 | 0.0 | 0.0 | 0.00 | 0.36 | 0.03 | 60 | 1006.7 |
| 20260507182052 | 63 | 150 | 0.0 | 7.0 | 0.00 | 0.36 | 0.03 | 59 | 1006.9 |
| 20260507175122 | 64 | 214 | 0.0 | 6.0 | 0.00 | 0.36 | 0.03 | 62 | 1007.3 |
| 20260507172053 | 61 | 55 | 0.0 | 6.0 | 0.00 | 0.36 | 0.03 | 63 | 1007.7 |
| 20260507165122 | 60 | 11 | 1.0 | 5.0 | 0.00 | 0.36 | 0.03 | 68 | 1008.2 |
| 20260507162052 | 57 | 11 | 0.0 | 3.0 | 0.00 | 0.36 | 0.03 | 69 | 1008.7 |
| 20260507155122 | 55 | 335 | 0.0 | 4.0 | 0.00 | 0.36 | 0.03 | 72 | 1009.2 |
| 20260507152052 | 54 | 350 | 0.0 | 6.0 | 0.00 | 0.36 | 0.03 | 76 | 1009.2 |
| 20260507145122 | 54 | 5 | 1.0 | 11.0 | 0.00 | 0.36 | 0.03 | 78 | 1009.5 |
| 20260507142052 | 53 | 360 | 3.0 | 8.0 | 0.00 | 0.36 | 0.03 | 81 | 1010.0 |
| 20260507135122 | 53 | 350 | 1.0 | 9.0 | 0.00 | 0.36 | 0.03 | 87 | 1010.0 |
| 20260507132052 | 53 | 336 | 1.0 | 3.0 | 0.00 | 0.36 | 0.03 | 89 | 1010.1 |
| 20260507122052 | 53 | 298 | 0.0 | 3.0 | 0.00 | 0.42 | 0.03 | 91 | 1010.2 |
| 20260507115122 | 53 | 312 | 0.0 | 3.0 | 0.00 | 0.45 | 0.03 | 92 | 1009.7 |
| 20260507112052 | 53 | 309 | 0.0 | 3.0 | 0.00 | 0.45 | 0.03 | 91 | 1009.7 |
| 20260507105122 | 53 | 309 | 0.0 | 2.0 | 0.00 | 0.46 | 0.03 | 91 | 1009.3 |
| 20260507102052 | 53 | 301 | 0.0 | 3.0 | 0.00 | 0.46 | 0.03 | 92 | 1009.5 |
| 20260507095123 | 53 | 300 | 0.0 | 3.0 | 0.00 | 0.46 | 0.03 | 92 | 1009.2 |
| 20260507092053 | 53 | 302 | 1.0 | 3.0 | 0.00 | 0.46 | 0.03 | 92 | 1009.1 |
| 20260507085122 | 53 | 309 | 0.0 | 3.0 | 0.00 | 0.46 | 0.03 | 92 | 1008.9 |
| 20260507082122 | 53 | 327 | 1.0 | 3.0 | 0.00 | 0.46 | 0.03 | 92 | 1008.9 |
| 20260507072122 | 54 | 337 | 1.0 | 11.0 | 0.00 | 0.46 | 0.03 | 93 | 1008.2 |
| 20260507065122 | 55 | 355 | 7.0 | 7.0 | 0.00 | 0.46 | 0.03 | 93 | 1008.4 |
| 20260507055122 | 56 | 348 | 0.0 | 11.0 | 0.00 | 0.46 | 0.03 | 94 | 1008.5 |
| 20260507045122 | 58 | 302 | 0.0 | 11.0 | 0.03 | 0.46 | 0.03 | 94 | 1007.8 |
| 20260507042122 | 58 | 321 | 0.0 | 0.0 | 0.08 | 0.45 | 0.02 | 94 | 1007.3 |
| 20260507035122 | 60 | 323 | 0.0 | 10.0 | 0.10 | 0.43 | 0.00 | 93 | 1008.5 |
| 20260507032122 | 61 | 303 | 2.0 | 8.0 | 0.04 | 0.37 | 0.37 | 93 | 1007.9 |
| 20260507025122 | 62 | 325 | 0.0 | 0.0 | 0.01 | 0.33 | 0.33 | 93 | 1007.9 |
| 20260507022122 | 63 | 327 | 0.0 | 0.0 | 0.01 | 0.33 | 0.33 | 93 | 1006.7 |
| 20260507015122 | 63 | 303 | 0.0 | 0.0 | 0.00 | 0.32 | 0.32 | 92 | 1007.1 |
| 20260507012122 | 64 | 355 | 0.0 | 0.0 | 0.00 | 0.32 | 0.32 | 92 | 1006.3 |
| 20260507005122 | 65 | 329 | 0.0 | 0.0 | 0.16 | 0.32 | 0.32 | 91 | 1007.1 |
| 20260507002122 | 65 | 329 | 0.0 | 0.0 | 0.22 | 0.32 | 0.32 | 88 | 1006.5 |
| 20260506235122 | 70 | 298 | 0.0 | 0.0 | 0.06 | 0.16 | 0.16 | 83 | 1006.1 |
| 20260506232121 | 73 | 200 | 0.0 | 8.0 | 0.00 | 0.10 | 0.10 | 72 | 1005.8 |
| 20260506225121 | 74 | 131 | 4.0 | 9.0 | 0.00 | 0.10 | 0.10 | 68 | 1005.1 |
| 20260506222121 | 74 | 171 | 1.0 | 11.0 | 0.00 | 0.10 | 0.10 | 68 | 1005.4 |
| 20260506215122 | 75 | 140 | 6.0 | 14.0 | 0.00 | 0.10 | 0.10 | 66 | 1005.5 |
| 20260506212121 | 76 | 119 | 7.0 | 16.0 | 0.00 | 0.10 | 0.10 | 65 | 1005.2 |